This is the latest recevied weather packets stored in our database for station/object EA1ZE. If no packets are shown the sender has not sent any weather packets the latest 10 day(s).
| Time | Temp. | Humidity | Pressure | Rain* | Wind** | Luminosity | Snow |
|---|---|---|---|---|---|---|---|
| 1787477412 | 25° C | 38% | 1012.9 hPa | 0 mm | - | - | - |
| 1787476505 | 24.44° C | 42% | 1012.8 hPa | 0 mm | - | - | - |
| 1787475602 | 23.89° C | 44% | 1012.8 hPa | 0 mm | - | - | - |
| 1787474761 | 23.33° C | 46% | 1012.8 hPa | 0 mm | - | - | - |
| 1787473861 | 22.78° C | 46% | 1012.8 hPa | 0 mm | - | - | - |
| 1787472961 | 22.22° C | 46% | 1012.8 hPa | 0 mm | - | - | - |
| 1787472070 | 21.11° C | 52% | 1012.9 hPa | 0 mm | - | - | - |
| 1787471176 | 20.56° C | 55% | 1012.9 hPa | 0 mm | - | - | - |
| 1787470260 | 20° C | 60% | 1012.9 hPa | 0 mm | - | - | - |
| 1787469364 | 18.89° C | 66% | 1012.9 hPa | 0 mm | - | - | - |
| 1787468457 | 17.78° C | 69% | 1012.9 hPa | 0 mm | - | - | - |
| 1787467582 | 16.67° C | 72% | 1012.8 hPa | 0 mm | - | - | - |
| 1787466656 | 16.11° C | 74% | 1012.8 hPa | 0 mm | - | - | - |
| 1787465754 | 16.11° C | 75% | 1012.8 hPa | 0 mm | - | - | - |
| 1787464854 | 16.11° C | 76% | 1012.7 hPa | 0 mm | - | - | - |
| 1787463952 | 16.11° C | 76% | 1012.5 hPa | 0 mm | - | - | - |
| 1787463050 | 16.11° C | 76% | 1012.3 hPa | 0 mm | - | - | - |
| 1787462154 | 16.11° C | 76% | 1012 hPa | 0 mm | - | - | - |
| 1787461247 | 16.11° C | 76% | 1012 hPa | 0 mm | - | - | - |
| 1787460361 | 16.11° C | 76% | 1011.8 hPa | 0 mm | - | - | - |
| 1787459443 | 16.67° C | 74% | 1011.8 hPa | 0 mm | - | - | - |
| 1787458542 | 17.22° C | 73% | 1011.9 hPa | 0 mm | - | - | - |
| 1787457647 | 17.22° C | 70% | 1011.8 hPa | 0 mm | - | - | - |
| 1787456738 | 17.78° C | 70% | 1011.7 hPa | 0 mm | - | - | - |
| 1787455838 | 17.78° C | 69% | 1011.7 hPa | 0 mm | - | - | - |
* Rain latest hour (hover to see other rain measurements)
** Current wind speed in m/s (hover to see current wind gust speed)